KHTL/HTL METAR and TAF weather

Enter ICAO airport designator
Station Type Date Time Source
KHTL METAR 2020/05/22 04:53 UTC NOAA

KHTL 220453Z AUTO 11005KT 10SM CLR 14/11 A3012 RMK AO2 SLP199 T01390106 402500061


Station Type Date Time Source
KHTL Decoded METAR 2020/05/22 04:53 UTC NOAA

ROSCOMMON COUNTY AIRPORT, MI, United States (KHTL) 44-21N 084-40W 351M
May 22, 2020 - 12:53 AM EDT / 2020.05.22 0453 UTC
Wind: from the ESE (110 degrees) at 6 MPH (5 KT):0
Visibility: 10 mile(s):0
Sky conditions: clear
Temperature: 57.0 F (13.9 C)
Dew Point: 51.1 F (10.6 C)
Relative Humidity: 80%
Pressure (altimeter): 30.12 in. Hg (1019 hPa)
ob: KHTL 220453Z AUTO 11005KT 10SM CLR 14/11 A3012 RMK AO2 SLP199 T01390106 402500061
cycle: 5

Station Type Date Time Source
KHTL TAF UTC NOAA

Error!

Example: see airport list